Time;durP1;ratioP1;P1;durP2;ratioP2;P2;SDS_P1;SDS_P2;PMS_P1;PMS_P2;Temp;Humidity;BMP_temperature;BMP_pressure;BME280_temperature;BME280_humidity;BME280_pressure;Samples;Min_cycle;Max_cycle;Signal;HPM_P1;HPM_P2
2022/03/25 00:01:00;;;;;;;15.47;11.20;;;;;;;5.86;64.86;100440.06;4947113;28;20926;-75
2022/03/25 00:03:26;;;;;;;14.63;9.82;;;;;;;5.86;64.73;100442.66;4948365;28;20884;-73
2022/03/25 00:05:52;;;;;;;13.53;11.93;;;;;;;5.86;65.11;100435.72;4945427;28;20208;-74
2022/03/25 00:08:17;;;;;;;17.87;12.13;;;;;;;5.88;65.14;100441.72;4946117;28;20468;-75
2022/03/25 00:10:43;;;;;;;15.30;11.33;;;;;;;5.87;65.11;100439.19;4945849;28;20256;-72
2022/03/25 00:13:10;;;;;;;16.05;10.27;;;;;;;5.82;65.15;100436.69;4945511;28;20236;-73
2022/03/25 00:15:36;;;;;;;15.07;9.57;;;;;;;5.80;65.01;100438.50;4947263;28;21189;-74
2022/03/25 00:18:01;;;;;;;14.67;10.40;;;;;;;5.80;64.69;100440.25;4947703;28;20331;-74
2022/03/25 00:20:26;;;;;;;10.93;9.40;;;;;;;5.76;65.21;100442.09;4946466;28;20205;-73
2022/03/25 00:22:52;;;;;;;14.17;10.93;;;;;;;5.74;65.11;100444.75;4947318;28;20208;-75
2022/03/25 00:25:17;;;;;;;16.50;10.10;;;;;;;5.72;64.91;100440.47;4948212;28;20546;-73
2022/03/25 00:27:43;;;;;;;11.10;9.73;;;;;;;5.70;64.66;100443.16;4946652;28;20284;-75
2022/03/25 00:30:09;;;;;;;15.60;10.67;;;;;;;5.69;64.71;100443.19;4946208;28;20209;-75
2022/03/25 00:32:35;;;;;;;15.00;12.67;;;;;;;5.69;65.13;100446.63;4962547;28;20568;-75
2022/03/25 00:35:01;;;;;;;14.77;10.50;;;;;;;5.68;65.13;100441.50;4942707;28;20546;-74
2022/03/25 00:37:27;;;;;;;13.30;10.50;;;;;;;5.69;65.05;100445.78;4938370;28;20204;-73
2022/03/25 00:39:52;;;;;;;13.77;10.87;;;;;;;5.67;65.18;100435.44;4943233;28;21102;-75
2022/03/25 00:42:18;;;;;;;10.70;9.40;;;;;;;5.65;65.20;100442.44;4943558;28;20575;-75
2022/03/25 00:44:44;;;;;;;12.37;9.70;;;;;;;5.60;65.65;100438.25;4946092;28;20811;-75
2022/03/25 00:47:10;;;;;;;11.47;10.40;;;;;;;5.56;65.43;100447.91;4943979;28;20468;-73
2022/03/25 00:49:38;;;;;;;13.13;9.95;;;;;;;5.54;65.78;100434.94;4948148;28;20209;-74
2022/03/25 00:52:04;;;;;;;17.58;10.05;;;;;;;5.57;65.21;100434.00;4946139;28;20215;-74
2022/03/25 00:54:30;;;;;;;15.30;12.10;;;;;;;5.59;65.14;100433.94;4943027;28;20789;-74
2022/03/25 00:56:55;;;;;;;13.17;9.90;;;;;;;5.57;65.13;100433.16;4943848;28;20377;-73
2022/03/25 00:59:23;;;;;;;11.90;9.30;;;;;;;5.53;65.61;100434.97;4960107;28;20746;-72
2022/03/25 01:01:48;;;;;;;13.57;10.20;;;;;;;5.45;65.69;100429.97;4962017;28;21143;-74
2022/03/25 01:04:13;;;;;;;10.97;9.50;;;;;;;5.39;65.63;100432.78;4943769;28;20252;-75
2022/03/25 01:06:40;;;;;;;13.63;10.63;;;;;;;5.36;65.64;100445.88;4944333;28;20247;-75
2022/03/25 01:09:05;;;;;;;10.60;9.30;;;;;;;5.33;65.86;100423.38;4936068;28;20201;-73
2022/03/25 01:11:31;;;;;;;13.90;10.10;;;;;;;5.31;65.86;100427.78;4938897;28;20554;-75
2022/03/25 01:13:58;;;;;;;11.50;9.73;;;;;;;5.29;66.43;100428.72;4937936;28;20247;-73
2022/03/25 01:16:24;;;;;;;19.20;11.52;;;;;;;5.23;66.61;100431.50;4942168;28;20200;-75
2022/03/25 01:18:50;;;;;;;17.08;10.68;;;;;;;5.18;66.56;100430.78;4943443;28;20217;-75
2022/03/25 01:21:17;;;;;;;15.90;10.30;;;;;;;5.16;66.35;100427.34;4946439;28;20247;-75
2022/03/25 01:23:44;;;;;;;19.00;11.75;;;;;;;5.19;66.57;100433.34;4945500;28;20286;-74
2022/03/25 01:26:09;;;;;;;14.18;10.55;;;;;;;5.20;66.51;100423.78;4943396;28;20246;-72
2022/03/25 01:28:35;;;;;;;13.77;10.93;;;;;;;5.21;66.08;100431.56;4961487;28;20307;-73
2022/03/25 01:31:04;;;;;;;16.23;9.63;;;;;;;5.19;66.21;100429.91;4957741;28;20212;-75
2022/03/25 01:33:33;;;;;;;13.95;9.60;;;;;;;5.17;66.17;100431.69;4957781;28;20234;-74
2022/03/25 01:36:00;;;;;;;10.05;9.05;;;;;;;5.14;66.56;100437.84;4958039;28;20258;-73
2022/03/25 01:38:26;;;;;;;13.93;9.47;;;;;;;5.13;66.40;100432.66;4957731;28;20204;-75
2022/03/25 01:40:52;;;;;;;11.57;9.40;;;;;;;5.08;66.84;100430.19;4954408;28;20255;-74
2022/03/25 01:43:17;;;;;;;13.07;9.50;;;;;;;5.03;66.66;100429.47;4939361;28;20291;-75
2022/03/25 01:45:43;;;;;;;13.73;10.37;;;;;;;4.99;67.04;100436.50;4940904;28;20217;-74
2022/03/25 01:48:11;;;;;;;17.00;11.13;;;;;;;4.96;66.86;100436.56;4944219;28;20328;-74
2022/03/25 01:50:42;;;;;;;12.05;9.23;;;;;;;4.97;66.78;100433.09;4946324;28;20208;-75
2022/03/25 01:53:14;;;;;;;13.70;10.13;;;;;;;4.98;66.81;100440.00;4942406;28;20232;-74
2022/03/25 01:55:50;;;;;;;10.75;8.73;;;;;;;4.91;66.92;100432.41;4944898;28;20211;-74
2022/03/25 01:58:16;;;;;;;11.27;9.10;;;;;;;4.87;66.87;100432.47;4958505;28;20279;-73
2022/03/25 02:00:42;;;;;;;12.75;9.30;;;;;;;4.90;67.15;100436.75;4941858;28;20208;-74
2022/03/25 02:03:07;;;;;;;14.82;12.10;;;;;;;4.94;67.36;100427.97;4940819;28;20491;-72
2022/03/25 02:05:35;;;;;;;13.30;9.60;;;;;;;4.95;67.25;100424.47;4942688;28;20197;-75
2022/03/25 02:08:02;;;;;;;14.93;11.40;;;;;;;4.98;67.26;100429.59;4937253;28;20209;-75
2022/03/25 02:10:27;;;;;;;13.68;10.43;;;;;;;5.01;66.83;100432.09;4940306;28;20201;-75
2022/03/25 02:12:53;;;;;;;14.90;9.83;;;;;;;5.03;66.99;100427.72;4941824;28;21572;-73
2022/03/25 02:15:35;;;;;;;13.63;8.60;;;;;;;5.04;67.18;100423.34;4939491;28;20622;-75
2022/03/25 02:18:15;;;;;;;15.07;10.85;;;;;;;5.03;66.94;100422.50;4955548;28;20272;-75
2022/03/25 02:20:42;;;;;;;15.27;10.75;;;;;;;5.01;66.82;100418.25;4958667;28;20302;-72
2022/03/25 02:23:10;;;;;;;14.00;11.27;;;;;;;4.94;66.93;100424.50;4943700;28;20233;-75
2022/03/25 02:25:38;;;;;;;18.00;11.15;;;;;;;4.88;66.78;100422.91;4956271;28;20201;-73
2022/03/25 02:28:04;;;;;;;16.95;10.18;;;;;;;4.82;67.06;100426.53;4951791;28;20286;-74
2022/03/25 02:30:32;;;;;;;13.57;10.85;;;;;;;4.66;67.43;100431.28;4953821;28;20299;-74
2022/03/25 02:33:01;;;;;;;15.93;12.30;;;;;;;4.53;68.27;100431.66;4945451;28;20493;-75
2022/03/25 02:35:49;;;;;;;15.10;11.95;;;;;;;4.41;68.49;100427.63;4964008;28;20322;-75
2022/03/25 02:38:20;;;;;;;15.82;9.98;;;;;;;4.32;68.48;100430.44;4959234;28;20223;-73
2022/03/25 02:40:47;;;;;;;13.50;10.65;;;;;;;4.18;68.86;100429.03;4945395;28;20578;-74
2022/03/25 02:43:13;;;;;;;16.10;11.13;;;;;;;4.13;69.00;100432.63;4945394;28;20232;-75
2022/03/25 02:45:43;;;;;;;13.32;10.95;;;;;;;4.14;69.12;100430.00;4943710;28;20288;-75
2022/03/25 02:48:09;;;;;;;14.90;10.37;;;;;;;4.13;68.71;100438.72;4945822;28;20363;-73
2022/03/25 02:50:35;;;;;;;15.97;11.03;;;;;;;4.16;68.75;100432.59;4948130;28;20452;-75
2022/03/25 02:53:01;;;;;;;13.47;9.10;;;;;;;4.14;68.56;100430.00;4943346;28;20456;-75
2022/03/25 02:55:26;;;;;;;14.27;10.93;;;;;;;4.14;69.07;100429.16;4947738;28;20224;-73
2022/03/25 02:57:53;;;;;;;11.40;8.87;;;;;;;4.07;69.46;100433.63;4944878;28;20240;-75
2022/03/25 03:00:20;;;;;;;14.57;10.10;;;;;;;4.01;69.28;100435.53;4944807;28;20302;-75
2022/03/25 03:02:46;;;;;;;17.40;12.23;;;;;;;4.01;69.81;100436.41;4944591;28;20499;-73
2022/03/25 03:05:12;;;;;;;11.77;9.60;;;;;;;3.98;70.01;100439.06;4944756;28;20500;-74
2022/03/25 03:07:37;;;;;;;15.37;9.73;;;;;;;3.92;69.76;100437.47;4944521;28;20296;-73
2022/03/25 03:10:04;;;;;;;15.07;11.40;;;;;;;3.89;70.13;100440.13;4944069;28;20208;-75
2022/03/25 03:12:30;;;;;;;11.18;9.98;;;;;;;3.85;69.89;100446.28;4944219;28;20388;-75
2022/03/25 03:14:57;;;;;;;12.17;8.53;;;;;;;3.77;70.03;100441.25;4945191;28;20235;-74
2022/03/25 03:17:22;;;;;;;13.65;9.38;;;;;;;3.71;70.12;100441.41;4946241;28;20297;-73
2022/03/25 03:19:48;;;;;;;16.43;10.80;;;;;;;3.65;70.60;100446.75;4946346;28;20574;-75
2022/03/25 03:22:13;;;;;;;13.67;11.83;;;;;;;3.59;70.53;100449.44;4943395;28;20409;-75
2022/03/25 03:24:38;;;;;;;16.70;10.20;;;;;;;3.58;70.62;100450.34;4944504;28;20343;-73
2022/03/25 03:27:04;;;;;;;14.57;10.50;;;;;;;3.61;70.60;100445.06;4944749;28;20270;-75
2022/03/25 03:29:29;;;;;;;14.63;10.97;;;;;;;3.67;70.49;100449.28;4945877;28;20235;-75
2022/03/25 03:31:55;;;;;;;15.88;11.40;;;;;;;3.71;70.37;100444.00;4947160;28;21347;-74
2022/03/25 03:34:20;;;;;;;13.50;9.53;;;;;;;3.75;70.31;100443.06;4941966;28;20231;-75
2022/03/25 03:36:45;;;;;;;13.17;10.60;;;;;;;3.72;70.77;100440.50;4944089;28;20746;-74
2022/03/25 03:39:11;;;;;;;17.90;10.60;;;;;;;3.69;70.72;100448.38;4950054;28;20216;-73
2022/03/25 03:41:38;;;;;;;16.87;11.20;;;;;;;3.69;70.60;100440.56;4941587;28;20225;-75
2022/03/25 03:44:04;;;;;;;17.73;11.80;;;;;;;3.67;70.47;100447.56;4944909;28;20237;-75
2022/03/25 03:46:30;;;;;;;12.68;9.05;;;;;;;3.63;70.67;100445.91;4943286;28;20209;-73
2022/03/25 03:48:55;;;;;;;13.90;9.33;;;;;;;3.55;70.91;100435.69;4943416;28;20235;-73
2022/03/25 03:51:21;;;;;;;13.03;9.13;;;;;;;3.42;71.15;100435.97;4945179;28;20284;-75
2022/03/25 03:53:46;;;;;;;17.67;10.37;;;;;;;3.37;71.60;100443.84;4943478;28;20228;-73
2022/03/25 03:56:11;;;;;;;11.97;9.13;;;;;;;3.36;71.20;100444.75;4939227;28;20212;-75
2022/03/25 03:58:37;;;;;;;14.10;10.00;;;;;;;3.39;71.03;100442.09;4945064;28;20887;-75
2022/03/25 04:01:03;;;;;;;15.30;9.70;;;;;;;3.44;71.07;100439.41;4940296;28;20264;-75
2022/03/25 04:03:30;;;;;;;16.97;9.50;;;;;;;3.46;70.75;100432.44;4940587;28;20250;-73
2022/03/25 04:05:55;;;;;;;11.55;8.50;;;;;;;3.48;70.63;100434.13;4944221;28;20476;-74
2022/03/25 04:08:23;;;;;;;15.20;10.07;;;;;;;3.49;70.48;100437.56;4945233;28;20211;-75
2022/03/25 04:10:49;;;;;;;14.07;9.55;;;;;;;3.47;70.46;100431.53;4946370;28;21336;-75
2022/03/25 04:13:14;;;;;;;11.53;9.10;;;;;;;3.47;70.61;100436.75;4947229;28;20235;-74
2022/03/25 04:15:39;;;;;;;17.40;10.47;;;;;;;3.47;70.40;100441.94;4945076;28;20475;-74
2022/03/25 04:18:05;;;;;;;15.00;9.87;;;;;;;3.48;70.51;100441.91;4945012;28;20227;-73
2022/03/25 04:20:31;;;;;;;13.30;10.03;;;;;;;3.45;70.85;100436.75;4946344;28;20328;-75
2022/03/25 04:22:56;;;;;;;13.70;10.17;;;;;;;3.37;70.92;100440.41;4933004;28;20224;-72
2022/03/25 04:25:22;;;;;;;12.90;9.33;;;;;;;3.31;70.95;100442.25;4943487;28;20452;-75
2022/03/25 04:27:58;;;;;;;14.33;9.33;;;;;;;3.29;71.05;100444.03;4939937;28;20232;-74
2022/03/25 04:30:25;;;;;;;13.45;9.75;;;;;;;3.27;71.02;100448.41;4939043;28;20202;-73
2022/03/25 04:32:51;;;;;;;14.95;11.73;;;;;;;3.26;71.45;100449.25;4939783;28;20496;-74
2022/03/25 04:35:17;;;;;;;12.30;8.70;;;;;;;3.24;71.68;100440.69;4942935;28;20300;-73
2022/03/25 04:37:43;;;;;;;13.30;10.50;;;;;;;3.24;71.94;100453.66;4944249;28;20200;-73
2022/03/25 04:40:11;;;;;;;15.50;10.70;;;;;;;3.22;71.46;100452.81;4945756;28;20218;-73
2022/03/25 04:42:37;;;;;;;13.55;9.00;;;;;;;3.15;71.48;100448.63;4943287;28;20243;-76
2022/03/25 04:45:03;;;;;;;13.53;9.80;;;;;;;3.04;71.91;100446.25;4947000;28;21166;-76
2022/03/25 04:47:28;;;;;;;10.43;9.43;;;;;;;3.01;71.73;100454.09;4945911;28;20534;-73
2022/03/25 04:49:54;;;;;;;15.77;9.83;;;;;;;3.01;71.84;100448.91;4946383;28;20208;-74
2022/03/25 04:52:19;;;;;;;12.40;10.00;;;;;;;3.01;71.44;100446.31;4941325;28;20204;-74
2022/03/25 04:54:44;;;;;;;12.37;9.20;;;;;;;3.02;71.20;100449.75;4943990;28;20257;-76
2022/03/25 04:57:10;;;;;;;12.80;9.23;;;;;;;3.03;70.98;100451.47;4946179;28;20218;-74
2022/03/25 04:59:36;;;;;;;12.10;9.63;;;;;;;2.95;71.56;100449.03;4936699;28;20207;-73
2022/03/25 05:02:01;;;;;;;13.17;9.97;;;;;;;2.81;71.63;100438.06;4944757;28;20212;-74
2022/03/25 05:04:27;;;;;;;16.00;10.37;;;;;;;2.77;71.95;100460.59;4939553;28;20242;-75
2022/03/25 05:06:52;;;;;;;13.70;10.13;;;;;;;2.72;71.58;100466.75;4939868;28;20464;-74
2022/03/25 05:09:18;;;;;;;14.90;9.57;;;;;;;2.72;71.88;100456.38;4947618;28;20235;-74
2022/03/25 05:11:43;;;;;;;17.90;11.30;;;;;;;2.73;71.80;100458.94;4948732;28;21155;-75
2022/03/25 05:14:10;;;;;;;12.40;8.83;;;;;;;2.74;71.63;100457.19;4949157;28;20228;-75
2022/03/25 05:16:35;;;;;;;18.13;10.50;;;;;;;2.75;71.45;100454.56;4944109;28;20214;-75
2022/03/25 05:19:01;;;;;;;17.27;9.37;;;;;;;2.75;71.83;100457.16;4943547;28;20209;-76
2022/03/25 05:21:26;;;;;;;13.67;9.43;;;;;;;2.65;72.08;100460.81;4938310;28;20223;-73
2022/03/25 05:23:52;;;;;;;13.93;11.13;;;;;;;2.56;71.96;100464.41;4941663;28;20300;-73
2022/03/25 05:26:17;;;;;;;13.80;10.43;;;;;;;2.56;72.13;100466.16;4944140;28;20205;-74
2022/03/25 05:28:42;;;;;;;14.57;10.90;;;;;;;2.57;72.10;100467.88;4943210;28;20204;-75
2022/03/25 05:31:08;;;;;;;13.17;10.83;;;;;;;2.58;72.11;100464.38;4945761;28;20240;-73
2022/03/25 05:33:33;;;;;;;15.03;10.80;;;;;;;2.62;71.80;100471.25;4940367;28;20319;-74
2022/03/25 05:35:59;;;;;;;22.83;11.80;;;;;;;2.65;72.03;100471.19;4938482;28;20750;-75
2022/03/25 05:38:24;;;;;;;15.73;9.53;;;;;;;2.67;71.55;100466.81;4944590;28;20209;-75
2022/03/25 05:40:50;;;;;;;13.30;10.37;;;;;;;2.65;71.66;100469.44;4941826;28;20292;-75
2022/03/25 05:43:16;;;;;;;14.27;11.50;;;;;;;2.64;71.67;100477.25;4943988;28;20308;-72
2022/03/25 05:45:41;;;;;;;16.00;10.20;;;;;;;2.64;71.39;100472.06;4937397;28;20969;-72
2022/03/25 05:48:07;;;;;;;16.63;11.53;;;;;;;2.65;71.88;100481.56;4941189;28;20233;-74
2022/03/25 05:50:33;;;;;;;20.75;11.02;;;;;;;2.61;71.80;100469.53;4942450;28;20220;-73
2022/03/25 05:52:58;;;;;;;15.70;10.77;;;;;;;2.56;72.38;100474.78;4940809;28;20208;-74
2022/03/25 05:55:24;;;;;;;14.50;10.13;;;;;;;2.58;72.04;100469.56;4942760;28;20250;-71
2022/03/25 05:57:49;;;;;;;15.90;10.87;;;;;;;2.66;71.96;100468.56;4941437;28;20278;-70
2022/03/25 06:00:16;;;;;;;13.73;11.13;;;;;;;2.75;71.80;100471.88;4942342;28;20216;-74
2022/03/25 06:02:44;;;;;;;14.25;11.38;;;;;;;2.81;71.36;100474.38;4941924;28;20208;-72
2022/03/25 06:05:10;;;;;;;16.77;11.15;;;;;;;2.87;71.45;100474.25;4940571;28;20299;-72
2022/03/25 06:07:40;;;;;;;15.57;11.25;;;;;;;2.93;71.59;100476.72;4941634;28;20247;-73
2022/03/25 06:10:10;;;;;;;21.77;11.25;;;;;;;3.02;70.94;100478.28;4938220;28;20756;-72
2022/03/25 06:12:37;;;;;;;14.25;10.85;;;;;;;3.07;71.01;100486.84;4939659;28;20192;-74
2022/03/25 06:15:03;;;;;;;16.48;10.95;;;;;;;3.12;70.95;100489.38;4938034;28;20221;-73
2022/03/25 06:17:29;;;;;;;11.90;9.85;;;;;;;3.05;71.47;100497.28;4937260;28;20964;-74
2022/03/25 06:19:54;;;;;;;15.47;11.90;;;;;;;3.02;71.64;100493.88;4938596;28;20287;-74
2022/03/25 06:22:20;;;;;;;14.60;10.97;;;;;;;2.97;71.63;100499.16;4938062;28;21030;-74
2022/03/25 06:24:45;;;;;;;15.13;11.27;;;;;;;2.94;71.82;100491.41;4936222;28;20654;-72
2022/03/25 06:27:11;;;;;;;17.87;10.80;;;;;;;2.98;71.67;100489.63;4935981;28;20649;-71
2022/03/25 06:29:38;;;;;;;17.30;11.77;;;;;;;3.04;71.66;100494.69;4937163;28;20243;-75
2022/03/25 06:32:07;;;;;;;18.27;11.52;;;;;;;3.13;71.31;100504.06;4940969;28;20322;-73
2022/03/25 06:34:33;;;;;;;17.85;11.93;;;;;;;3.24;71.01;100495.19;4948735;28;20258;-71
2022/03/25 06:36:58;;;;;;;16.33;12.30;;;;;;;3.38;70.68;100483.69;4955268;28;20283;-72
2022/03/25 06:39:24;;;;;;;18.20;12.03;;;;;;;3.48;70.57;100482.59;4950018;28;20211;-73
2022/03/25 06:41:49;;;;;;;15.53;11.60;;;;;;;3.60;70.13;100492.75;4949343;28;20307;-74
2022/03/25 06:44:16;;;;;;;15.40;11.20;;;;;;;3.74;69.66;100485.50;4949413;28;20224;-75
2022/03/25 06:46:41;;;;;;;17.60;12.68;;;;;;;3.94;68.98;100489.41;4950889;28;20681;-73
2022/03/25 06:49:07;;;;;;;17.80;12.07;;;;;;;4.11;68.63;100486.44;4949696;28;20282;-74
2022/03/25 06:51:33;;;;;;;21.80;12.10;;;;;;;4.27;68.69;100494.75;4953866;28;20199;-71
2022/03/25 06:53:58;;;;;;;20.63;13.87;;;;;;;4.40;68.29;100488.34;4950945;28;20235;-75
2022/03/25 06:56:24;;;;;;;18.23;13.30;;;;;;;4.52;67.87;100493.25;4953610;28;20232;-75
2022/03/25 06:58:50;;;;;;;17.83;14.40;;;;;;;4.59;67.70;100494.81;4944466;28;20670;-74
2022/03/25 07:01:16;;;;;;;18.97;13.20;;;;;;;4.65;67.69;100494.66;4951123;28;20326;-71
2022/03/25 07:03:42;;;;;;;18.02;13.60;;;;;;;4.71;67.86;100498.00;4944197;28;20224;-72
2022/03/25 07:06:09;;;;;;;19.17;12.80;;;;;;;4.78;67.91;100505.63;4945484;28;20215;-74
2022/03/25 07:08:34;;;;;;;17.95;12.63;;;;;;;4.90;67.51;100503.59;4944672;28;20856;-73
2022/03/25 07:11:00;;;;;;;18.73;14.90;;;;;;;5.03;67.03;100499.78;4943008;28;20192;-74
2022/03/25 07:13:27;;;;;;;19.60;13.03;;;;;;;5.17;66.91;100507.22;4944656;28;20599;-73
2022/03/25 07:15:53;;;;;;;16.73;12.48;;;;;;;5.26;66.89;100501.75;4940562;28;20323;-72
2022/03/25 07:18:18;;;;;;;19.10;14.10;;;;;;;5.37;66.60;100499.69;4946303;28;20205;-73
2022/03/25 07:20:44;;;;;;;21.20;12.03;;;;;;;5.51;66.49;100507.16;4943502;28;20472;-72
2022/03/25 07:23:09;;;;;;;16.73;13.47;;;;;;;5.66;65.98;100503.22;4944862;28;20224;-72
2022/03/25 07:25:34;;;;;;;23.60;13.87;;;;;;;5.84;65.68;100514.88;4952714;28;20685;-72
2022/03/25 07:28:00;;;;;;;17.13;12.83;;;;;;;6.03;64.94;100504.78;4950230;28;20236;-72
2022/03/25 07:30:25;;;;;;;18.87;11.83;;;;;;;6.22;64.16;100511.13;4945344;28;20287;-72
2022/03/25 07:32:51;;;;;;;21.20;16.00;;;;;;;6.43;63.40;100500.03;4945548;28;20824;-71
2022/03/25 07:35:16;;;;;;;16.23;12.50;;;;;;;6.60;62.74;100502.06;4944842;28;20280;-74
2022/03/25 07:37:43;;;;;;;20.53;13.27;;;;;;;6.74;62.58;100504.22;4942607;28;20256;-72
2022/03/25 07:40:10;;;;;;;22.77;13.10;;;;;;;6.86;61.73;100501.22;4943635;28;20224;-73
2022/03/25 07:42:40;;;;;;;15.23;11.60;;;;;;;7.01;61.50;100504.19;4944641;28;20230;-73
2022/03/25 07:45:08;;;;;;;30.83;12.35;;;;;;;7.16;60.56;100516.72;4944556;28;20268;-73
2022/03/25 07:47:35;;;;;;;22.73;14.88;;;;;;;7.26;60.52;100519.84;4949354;28;20236;-73
2022/03/25 07:50:00;;;;;;;18.00;12.43;;;;;;;7.41;60.01;100518.47;4958130;28;20204;-72
2022/03/25 07:52:26;;;;;;;20.60;13.63;;;;;;;7.56;59.43;100509.19;4958309;28;20254;-72
2022/03/25 07:54:51;;;;;;;16.37;11.90;;;;;;;8.00;58.37;100499.69;4960731;28;20264;-72
2022/03/25 07:57:16;;;;;;;16.90;12.00;;;;;;;8.88;56.62;100501.41;4954440;28;20824;-73
2022/03/25 07:59:42;;;;;;;20.30;13.77;;;;;;;9.85;54.31;100493.59;4951749;28;20200;-72
2022/03/25 08:02:08;;;;;;;19.13;14.47;;;;;;;10.73;52.07;100495.53;4945084;28;20327;-74
2022/03/25 08:04:33;;;;;;;16.90;13.13;;;;;;;11.33;50.80;100491.59;4949818;28;20247;-74
2022/03/25 08:06:59;;;;;;;15.07;12.60;;;;;;;12.13;48.19;100488.16;4945921;28;20205;-74
2022/03/25 08:09:24;;;;;;;20.00;13.23;;;;;;;12.82;45.88;100492.09;4942637;28;20734;-72
2022/03/25 08:11:49;;;;;;;20.47;13.67;;;;;;;13.53;44.45;100488.75;4945047;28;20279;-73
2022/03/25 08:14:16;;;;;;;22.07;14.17;;;;;;;14.00;43.36;100489.31;4939881;28;21028;-72
2022/03/25 08:16:45;;;;;;;17.98;13.95;;;;;;;14.46;42.46;100483.69;4947330;28;20216;-74
2022/03/25 08:19:12;;;;;;;20.45;14.90;;;;;;;14.78;41.00;100486.88;4949257;28;20201;-71
2022/03/25 08:21:38;;;;;;;15.65;13.82;;;;;;;15.17;39.96;100490.41;4941100;28;20343;-74
2022/03/25 08:29:31;;;;;;;19.13;13.88;;;;;;;15.96;37.65;100484.00;4946638;28;20217;-73
2022/03/25 08:31:56;;;;;;;22.60;15.67;;;;;;;16.23;36.67;100480.28;4939210;28;20521;-73
2022/03/25 08:34:22;;;;;;;20.60;14.43;;;;;;;16.49;36.26;100481.84;4942486;28;20218;-74
2022/03/25 08:36:49;;;;;;;20.20;14.63;;;;;;;16.54;35.74;100479.72;4948647;28;20221;-73
2022/03/25 08:39:16;;;;;;;22.13;15.20;;;;;;;16.75;34.93;100481.72;4945223;28;20229;-73
2022/03/25 08:41:42;;;;;;;21.92;14.60;;;;;;;17.15;34.02;100482.22;4950275;28;20237;-72
2022/03/25 08:44:09;;;;;;;24.08;16.50;;;;;;;17.47;32.68;100474.41;4942599;28;20494;-71
2022/03/25 08:46:35;;;;;;;18.53;15.33;;;;;;;17.63;32.51;100475.81;4948226;28;20644;-74
2022/03/25 08:49:01;;;;;;;24.58;16.58;;;;;;;17.82;32.09;100472.56;4947676;28;20496;-71
2022/03/25 08:51:27;;;;;;;24.58;17.30;;;;;;;17.68;32.50;100478.97;4942868;28;20344;-73
2022/03/25 08:53:53;;;;;;;25.37;17.43;;;;;;;17.63;32.62;100475.81;4944548;28;20225;-72
2022/03/25 08:56:27;;;;;;;23.77;17.23;;;;;;;17.66;32.52;100478.22;4944012;28;21511;-74
2022/03/25 08:58:54;;;;;;;22.30;17.63;;;;;;;17.78;32.45;100479.91;4949230;28;20207;-74
2022/03/25 09:01:23;;;;;;;26.20;18.55;;;;;;;17.79;32.57;100478.97;4942884;28;20532;-74
2022/03/25 09:03:49;;;;;;;24.15;17.85;;;;;;;17.45;32.90;100472.81;4940475;28;20345;-73
2022/03/25 09:06:15;;;;;;;25.43;18.43;;;;;;;17.49;32.68;100476.91;4939878;28;20219;-74
2022/03/25 09:08:41;;;;;;;29.25;17.60;;;;;;;17.68;32.40;100470.97;4943757;28;20757;-74
2022/03/25 09:11:06;;;;;;;26.23;18.07;;;;;;;17.85;32.01;100478.50;4946627;28;20778;-71
2022/03/25 09:13:32;;;;;;;20.87;15.93;;;;;;;17.80;31.96;100470.06;4946103;28;20352;-71
2022/03/25 09:15:58;;;;;;;24.33;16.90;;;;;;;17.70;31.94;100472.56;4949230;28;20206;-71
2022/03/25 09:18:23;;;;;;;22.00;15.90;;;;;;;17.39;32.06;100475.94;4949222;28;20268;-74
2022/03/25 09:20:49;;;;;;;23.80;16.87;;;;;;;17.18;32.51;100481.13;4948634;28;20300;-72
2022/03/25 09:23:14;;;;;;;23.43;17.83;;;;;;;16.89;32.95;100476.25;4948130;28;20349;-74
2022/03/25 09:25:40;;;;;;;30.40;18.03;;;;;;;16.40;34.15;100471.09;4949868;28;20288;-71
2022/03/25 09:28:05;;;;;;;21.47;16.53;;;;;;;16.09;34.84;100473.34;4950229;28;20214;-74
2022/03/25 09:30:31;;;;;;;21.63;16.70;;;;;;;16.06;35.01;100466.44;4951035;28;20215;-73
2022/03/25 09:32:57;;;;;;;25.53;19.43;;;;;;;16.01;35.35;100470.41;4949170;28;21026;-74
2022/03/25 09:35:23;;;;;;;24.07;18.93;;;;;;;15.87;35.75;100466.94;4947825;28;20919;-73
2022/03/25 09:37:51;;;;;;;27.93;19.10;;;;;;;15.69;36.18;100468.28;4947126;28;20467;-74
2022/03/25 09:40:19;;;;;;;25.17;17.20;;;;;;;15.61;36.30;100466.16;4952453;28;20241;-73
2022/03/25 09:42:45;;;;;;;26.27;18.42;;;;;;;15.66;36.11;100466.66;4944581;28;21115;-72
2022/03/25 09:45:13;;;;;;;25.80;17.88;;;;;;;15.80;35.94;100463.06;4945422;28;20207;-71
2022/03/25 09:47:39;;;;;;;25.98;17.30;;;;;;;15.89;36.10;100458.91;4948455;28;20241;-71
2022/03/25 09:50:08;;;;;;;23.83;17.65;;;;;;;15.90;36.26;100455.28;4947893;28;20363;-74
2022/03/25 09:52:36;;;;;;;26.70;18.02;;;;;;;15.88;36.42;100454.56;4946801;28;20293;-74
2022/03/25 09:55:02;;;;;;;26.85;18.27;;;;;;;15.89;35.94;100451.78;4942892;28;20295;-71
2022/03/25 09:57:30;;;;;;;27.57;18.30;;;;;;;15.83;36.11;100452.25;4947373;28;20213;-74
2022/03/25 09:59:56;;;;;;;28.02;17.40;;;;;;;15.84;36.21;100448.63;4947666;28;20460;-73
2022/03/25 10:02:21;;;;;;;25.25;19.48;;;;;;;15.85;35.95;100455.63;4947373;28;20483;-72
2022/03/25 10:04:49;;;;;;;27.90;18.23;;;;;;;15.77;36.05;100447.38;4947162;28;20238;-72
2022/03/25 10:07:25;;;;;;;22.42;16.30;;;;;;;15.78;36.09;100449.06;4944595;28;20294;-73
2022/03/25 10:10:07;;;;;;;28.02;18.35;;;;;;;15.88;35.92;100443.97;4946142;28;20202;-71
2022/03/25 10:12:34;;;;;;;25.45;17.60;;;;;;;15.86;35.83;100445.88;4946872;28;20343;-74
2022/03/25 10:15:12;;;;;;;28.40;19.55;;;;;;;15.81;35.89;100440.06;4948083;28;20312;-72
2022/03/25 10:18:17;;;;;;;28.85;17.50;;;;;;;15.86;35.80;100440.56;4948418;28;20208;-74
2022/03/25 10:20:43;;;;;;;26.85;17.30;;;;;;;15.93;35.24;100436.50;4949499;28;20241;-71
2022/03/25 10:23:13;;;;;;;26.77;18.40;;;;;;;15.99;35.26;100441.38;4939675;28;20317;-71
2022/03/25 10:25:47;;;;;;;27.02;19.48;;;;;;;15.91;35.56;100428.69;4940064;28;21528;-71
2022/03/25 10:28:30;;;;;;;21.52;16.63;;;;;;;15.85;35.92;100434.44;4940592;28;20825;-72
2022/03/25 10:31:04;;;;;;;24.50;16.58;;;;;;;15.89;36.06;100429.75;4942483;28;20201;-72
2022/03/25 10:33:36;;;;;;;23.17;16.33;;;;;;;15.92;35.96;100432.19;4935824;28;20303;-72
2022/03/25 10:36:08;;;;;;;23.45;16.17;;;;;;;15.91;36.18;100426.03;4942785;28;20224;-74
2022/03/25 10:38:45;;;;;;;24.63;16.52;;;;;;;16.05;36.09;100425.03;4936197;28;20323;-74
2022/03/25 10:41:13;;;;;;;20.98;15.93;;;;;;;16.23;36.13;100427.25;4936019;28;20251;-74
2022/03/25 10:44:05;;;;;;;23.98;16.27;;;;;;;16.38;35.80;100426.13;4935153;28;20247;-72
2022/03/25 10:46:33;;;;;;;24.58;16.08;;;;;;;16.48;35.69;100421.00;4941125;28;20210;-72
2022/03/25 10:49:01;;;;;;;24.05;17.95;;;;;;;16.51;35.85;100416.28;4939606;28;20251;-73
2022/03/25 10:51:27;;;;;;;21.15;15.70;;;;;;;16.43;36.14;100413.38;4939285;28;20207;-71
2022/03/25 10:53:58;;;;;;;24.73;18.10;;;;;;;16.45;36.09;100413.28;4940837;28;20317;-74
2022/03/25 10:56:24;;;;;;;23.70;17.60;;;;;;;16.52;36.09;100412.66;4942057;28;20207;-73
2022/03/25 10:58:52;;;;;;;30.23;19.77;;;;;;;16.58;36.01;100412.22;4942731;28;20462;-71
2022/03/25 11:01:17;;;;;;;28.87;20.63;;;;;;;16.74;35.72;100416.34;4939708;28;20486;-70
2022/03/25 11:03:44;;;;;;;24.20;18.13;;;;;;;16.81;35.37;100402.53;4941629;28;20484;-73
2022/03/25 11:06:15;;;;;;;29.77;21.53;;;;;;;16.87;35.10;100398.56;4942994;28;20783;-73
2022/03/25 11:08:42;;;;;;;31.67;18.20;;;;;;;16.81;35.12;100397.22;4943790;28;20526;-73
2022/03/25 11:11:08;;;;;;;32.50;21.73;;;;;;;16.83;34.72;100394.47;4937487;28;20562;-73
2022/03/25 11:13:34;;;;;;;27.43;18.90;;;;;;;16.80;35.01;100394.69;4940019;28;20281;-72
2022/03/25 11:16:01;;;;;;;31.03;19.43;;;;;;;16.88;35.39;100383.50;4940368;28;20442;-72
2022/03/25 11:18:28;;;;;;;31.97;18.93;;;;;;;16.92;35.31;100380.47;4942914;28;20204;-73
2022/03/25 11:20:57;;;;;;;26.33;19.10;;;;;;;16.87;35.28;100379.97;4942466;28;20565;-73